sensor_id;sensor_type;location;lat;lon;timestamp;P1;durP1;ratioP1;P2;durP2;ratioP2
11037;SDS011;5572;49.540;11.932;2022-07-29T00:01:35;1.70;;;1.60;;
11037;SDS011;5572;49.540;11.932;2022-07-29T00:04:02;2.10;;;1.90;;
11037;SDS011;5572;49.540;11.932;2022-07-29T00:06:28;1.90;;;1.80;;
11037;SDS011;5572;49.540;11.932;2022-07-29T00:08:55;3.57;;;1.90;;
11037;SDS011;5572;49.540;11.932;2022-07-29T00:11:21;3.40;;;2.00;;
11037;SDS011;5572;49.540;11.932;2022-07-29T00:13:48;7.43;;;2.10;;
11037;SDS011;5572;49.540;11.932;2022-07-29T00:16:16;2.13;;;1.90;;
11037;SDS011;5572;49.540;11.932;2022-07-29T00:18:42;2.63;;;2.00;;
11037;SDS011;5572;49.540;11.932;2022-07-29T00:21:09;1.73;;;1.63;;
11037;SDS011;5572;49.540;11.932;2022-07-29T00:23:35;2.73;;;1.70;;
11037;SDS011;5572;49.540;11.932;2022-07-29T00:26:02;2.00;;;1.90;;
11037;SDS011;5572;49.540;11.932;2022-07-29T00:28:28;2.87;;;1.93;;
11037;SDS011;5572;49.540;11.932;2022-07-29T00:30:55;1.90;;;1.80;;
11037;SDS011;5572;49.540;11.932;2022-07-29T00:33:23;1.97;;;1.73;;
11037;SDS011;5572;49.540;11.932;2022-07-29T00:35:49;2.37;;;1.80;;
11037;SDS011;5572;49.540;11.932;2022-07-29T00:38:16;2.30;;;2.00;;
11037;SDS011;5572;49.540;11.932;2022-07-29T00:40:44;2.23;;;2.03;;
11037;SDS011;5572;49.540;11.932;2022-07-29T00:43:11;5.87;;;1.63;;
11037;SDS011;5572;49.540;11.932;2022-07-29T00:45:38;3.13;;;1.90;;
11037;SDS011;5572;49.540;11.932;2022-07-29T00:48:05;2.13;;;1.70;;
11037;SDS011;5572;49.540;11.932;2022-07-29T00:50:35;2.40;;;2.07;;
11037;SDS011;5572;49.540;11.932;2022-07-29T00:53:02;6.43;;;2.00;;
11037;SDS011;5572;49.540;11.932;2022-07-29T00:55:29;2.07;;;1.73;;
11037;SDS011;5572;49.540;11.932;2022-07-29T00:57:56;1.83;;;1.70;;
11037;SDS011;5572;49.540;11.932;2022-07-29T01:00:24;2.27;;;1.87;;
11037;SDS011;5572;49.540;11.932;2022-07-29T01:02:52;2.60;;;1.73;;
11037;SDS011;5572;49.540;11.932;2022-07-29T01:05:19;2.13;;;1.70;;
11037;SDS011;5572;49.540;11.932;2022-07-29T01:07:49;7.03;;;2.10;;
11037;SDS011;5572;49.540;11.932;2022-07-29T01:10:18;2.30;;;1.50;;
11037;SDS011;5572;49.540;11.932;2022-07-29T01:12:48;3.60;;;1.87;;
11037;SDS011;5572;49.540;11.932;2022-07-29T01:15:16;2.53;;;1.63;;
11037;SDS011;5572;49.540;11.932;2022-07-29T01:17:43;1.87;;;1.77;;
11037;SDS011;5572;49.540;11.932;2022-07-29T01:20:17;3.37;;;1.70;;
11037;SDS011;5572;49.540;11.932;2022-07-29T01:25:58;2.40;;;1.53;;
11037;SDS011;5572;49.540;11.932;2022-07-29T01:28:54;1.73;;;1.63;;
11037;SDS011;5572;49.540;11.932;2022-07-29T01:31:28;5.13;;;1.67;;
11037;SDS011;5572;49.540;11.932;2022-07-29T01:34:01;1.97;;;1.67;;
11037;SDS011;5572;49.540;11.932;2022-07-29T01:36:32;4.90;;;1.80;;
11037;SDS011;5572;49.540;11.932;2022-07-29T01:39:05;2.70;;;1.80;;
11037;SDS011;5572;49.540;11.932;2022-07-29T01:41:35;2.83;;;1.90;;
11037;SDS011;5572;49.540;11.932;2022-07-29T01:44:10;2.97;;;1.73;;
11037;SDS011;5572;49.540;11.932;2022-07-29T01:46:40;4.60;;;1.80;;
11037;SDS011;5572;49.540;11.932;2022-07-29T01:49:14;2.20;;;2.00;;
11037;SDS011;5572;49.540;11.932;2022-07-29T01:51:43;2.50;;;1.60;;
11037;SDS011;5572;49.540;11.932;2022-07-29T01:54:16;1.70;;;1.60;;
11037;SDS011;5572;49.540;11.932;2022-07-29T01:56:47;1.70;;;1.60;;
11037;SDS011;5572;49.540;11.932;2022-07-29T01:59:18;1.80;;;1.70;;
11037;SDS011;5572;49.540;11.932;2022-07-29T02:01:46;2.00;;;1.70;;
11037;SDS011;5572;49.540;11.932;2022-07-29T02:04:15;2.43;;;1.80;;
11037;SDS011;5572;49.540;11.932;2022-07-29T02:06:44;2.70;;;1.90;;
11037;SDS011;5572;49.540;11.932;2022-07-29T02:09:13;6.30;;;1.80;;
11037;SDS011;5572;49.540;11.932;2022-07-29T02:11:42;2.60;;;1.83;;
11037;SDS011;5572;49.540;11.932;2022-07-29T02:14:14;3.57;;;1.80;;
11037;SDS011;5572;49.540;11.932;2022-07-29T02:16:45;2.33;;;1.70;;
11037;SDS011;5572;49.540;11.932;2022-07-29T02:19:14;5.13;;;2.00;;
11037;SDS011;5572;49.540;11.932;2022-07-29T02:21:44;3.60;;;1.90;;
11037;SDS011;5572;49.540;11.932;2022-07-29T02:24:12;1.80;;;1.70;;
11037;SDS011;5572;49.540;11.932;2022-07-29T02:26:41;5.37;;;1.93;;
11037;SDS011;5572;49.540;11.932;2022-07-29T02:29:09;3.13;;;1.93;;
11037;SDS011;5572;49.540;11.932;2022-07-29T02:31:38;7.50;;;1.97;;
11037;SDS011;5572;49.540;11.932;2022-07-29T02:34:09;11.87;;;2.00;;
11037;SDS011;5572;49.540;11.932;2022-07-29T02:36:37;5.30;;;2.03;;
11037;SDS011;5572;49.540;11.932;2022-07-29T02:39:05;2.37;;;2.17;;
11037;SDS011;5572;49.540;11.932;2022-07-29T02:41:35;2.00;;;1.90;;
11037;SDS011;5572;49.540;11.932;2022-07-29T02:44:09;1.70;;;1.60;;
11037;SDS011;5572;49.540;11.932;2022-07-29T02:46:38;2.27;;;1.93;;
11037;SDS011;5572;49.540;11.932;2022-07-29T02:49:12;2.07;;;1.80;;
11037;SDS011;5572;49.540;11.932;2022-07-29T02:51:43;3.43;;;1.63;;
11037;SDS011;5572;49.540;11.932;2022-07-29T02:54:28;3.27;;;1.80;;
11037;SDS011;5572;49.540;11.932;2022-07-29T02:57:01;2.20;;;2.00;;
11037;SDS011;5572;49.540;11.932;2022-07-29T02:59:30;2.07;;;1.90;;
11037;SDS011;5572;49.540;11.932;2022-07-29T03:02:02;4.77;;;1.90;;
11037;SDS011;5572;49.540;11.932;2022-07-29T03:04:32;2.70;;;1.90;;
11037;SDS011;5572;49.540;11.932;2022-07-29T03:07:00;1.77;;;1.67;;
11037;SDS011;5572;49.540;11.932;2022-07-29T03:09:29;3.27;;;1.67;;
11037;SDS011;5572;49.540;11.932;2022-07-29T03:11:56;2.30;;;2.10;;
11037;SDS011;5572;49.540;11.932;2022-07-29T03:14:23;2.37;;;1.70;;
11037;SDS011;5572;49.540;11.932;2022-07-29T03:16:51;5.40;;;2.23;;
11037;SDS011;5572;49.540;11.932;2022-07-29T03:19:18;2.00;;;1.90;;
11037;SDS011;5572;49.540;11.932;2022-07-29T03:21:47;4.00;;;1.93;;
11037;SDS011;5572;49.540;11.932;2022-07-29T03:24:27;7.10;;;1.80;;
11037;SDS011;5572;49.540;11.932;2022-07-29T03:26:55;2.33;;;2.00;;
11037;SDS011;5572;49.540;11.932;2022-07-29T03:29:22;2.17;;;1.97;;
11037;SDS011;5572;49.540;11.932;2022-07-29T03:31:49;3.60;;;1.77;;
11037;SDS011;5572;49.540;11.932;2022-07-29T03:34:16;3.53;;;2.17;;
11037;SDS011;5572;49.540;11.932;2022-07-29T03:36:43;2.10;;;1.90;;
11037;SDS011;5572;49.540;11.932;2022-07-29T03:39:10;2.40;;;2.00;;
11037;SDS011;5572;49.540;11.932;2022-07-29T03:41:40;2.93;;;1.93;;
11037;SDS011;5572;49.540;11.932;2022-07-29T03:44:10;2.53;;;1.93;;
11037;SDS011;5572;49.540;11.932;2022-07-29T03:46:38;3.70;;;1.87;;
11037;SDS011;5572;49.540;11.932;2022-07-29T03:49:05;2.10;;;1.90;;
11037;SDS011;5572;49.540;11.932;2022-07-29T03:51:34;1.90;;;1.63;;
11037;SDS011;5572;49.540;11.932;2022-07-29T03:54:01;1.83;;;1.63;;
11037;SDS011;5572;49.540;11.932;2022-07-29T03:56:30;1.73;;;1.63;;
11037;SDS011;5572;49.540;11.932;2022-07-29T03:59:01;5.50;;;2.20;;
11037;SDS011;5572;49.540;11.932;2022-07-29T04:01:28;2.13;;;2.00;;
11037;SDS011;5572;49.540;11.932;2022-07-29T04:03:55;1.97;;;1.77;;
11037;SDS011;5572;49.540;11.932;2022-07-29T04:06:22;4.07;;;1.70;;
11037;SDS011;5572;49.540;11.932;2022-07-29T04:08:50;3.60;;;1.90;;
11037;SDS011;5572;49.540;11.932;2022-07-29T04:11:17;3.60;;;1.60;;
11037;SDS011;5572;49.540;11.932;2022-07-29T04:13:45;2.60;;;2.13;;
11037;SDS011;5572;49.540;11.932;2022-07-29T04:16:11;4.90;;;2.20;;
11037;SDS011;5572;49.540;11.932;2022-07-29T04:18:38;2.97;;;2.30;;
11037;SDS011;5572;49.540;11.932;2022-07-29T04:21:04;3.23;;;2.00;;
11037;SDS011;5572;49.540;11.932;2022-07-29T04:23:31;8.80;;;2.27;;
11037;SDS011;5572;49.540;11.932;2022-07-29T04:25:58;2.63;;;1.90;;
11037;SDS011;5572;49.540;11.932;2022-07-29T04:28:26;2.17;;;1.87;;
11037;SDS011;5572;49.540;11.932;2022-07-29T04:30:54;7.47;;;1.97;;
11037;SDS011;5572;49.540;11.932;2022-07-29T04:33:20;4.67;;;1.90;;
11037;SDS011;5572;49.540;11.932;2022-07-29T04:35:47;3.10;;;2.00;;
11037;SDS011;5572;49.540;11.932;2022-07-29T04:38:13;5.23;;;2.40;;
11037;SDS011;5572;49.540;11.932;2022-07-29T04:40:40;2.40;;;1.93;;
11037;SDS011;5572;49.540;11.932;2022-07-29T04:43:06;2.57;;;2.00;;
11037;SDS011;5572;49.540;11.932;2022-07-29T04:45:33;2.50;;;1.83;;
11037;SDS011;5572;49.540;11.932;2022-07-29T04:48:01;2.07;;;1.97;;
11037;SDS011;5572;49.540;11.932;2022-07-29T04:50:27;5.43;;;2.00;;
11037;SDS011;5572;49.540;11.932;2022-07-29T04:52:54;3.73;;;2.00;;
11037;SDS011;5572;49.540;11.932;2022-07-29T04:55:20;9.70;;;2.10;;
11037;SDS011;5572;49.540;11.932;2022-07-29T04:57:47;7.20;;;2.20;;
11037;SDS011;5572;49.540;11.932;2022-07-29T05:00:13;9.23;;;2.10;;
11037;SDS011;5572;49.540;11.932;2022-07-29T05:02:40;4.07;;;1.70;;
11037;SDS011;5572;49.540;11.932;2022-07-29T05:05:08;2.03;;;1.93;;
11037;SDS011;5572;49.540;11.932;2022-07-29T05:07:35;2.00;;;1.87;;
11037;SDS011;5572;49.540;11.932;2022-07-29T05:10:01;2.60;;;1.93;;
11037;SDS011;5572;49.540;11.932;2022-07-29T05:12:28;3.67;;;1.80;;
11037;SDS011;5572;49.540;11.932;2022-07-29T05:14:55;3.40;;;2.10;;
11037;SDS011;5572;49.540;11.932;2022-07-29T05:17:21;2.10;;;1.90;;
11037;SDS011;5572;49.540;11.932;2022-07-29T05:19:48;3.00;;;2.30;;
11037;SDS011;5572;49.540;11.932;2022-07-29T05:22:17;2.63;;;2.00;;
11037;SDS011;5572;49.540;11.932;2022-07-29T05:24:44;2.23;;;1.97;;
11037;SDS011;5572;49.540;11.932;2022-07-29T05:27:11;2.70;;;2.00;;
11037;SDS011;5572;49.540;11.932;2022-07-29T05:29:37;2.20;;;1.90;;
11037;SDS011;5572;49.540;11.932;2022-07-29T05:32:04;4.93;;;2.13;;
11037;SDS011;5572;49.540;11.932;2022-07-29T05:34:31;2.33;;;2.13;;
11037;SDS011;5572;49.540;11.932;2022-07-29T05:36:57;2.10;;;2.00;;
11037;SDS011;5572;49.540;11.932;2022-07-29T05:39:25;5.63;;;2.10;;
11037;SDS011;5572;49.540;11.932;2022-07-29T05:41:52;2.00;;;1.90;;
11037;SDS011;5572;49.540;11.932;2022-07-29T05:44:18;4.90;;;1.83;;
11037;SDS011;5572;49.540;11.932;2022-07-29T05:46:45;4.80;;;1.83;;
11037;SDS011;5572;49.540;11.932;2022-07-29T05:49:12;8.63;;;2.40;;
11037;SDS011;5572;49.540;11.932;2022-07-29T05:51:38;4.87;;;2.10;;
11037;SDS011;5572;49.540;11.932;2022-07-29T05:54:05;13.53;;;2.10;;
11037;SDS011;5572;49.540;11.932;2022-07-29T05:56:33;7.23;;;2.67;;
11037;SDS011;5572;49.540;11.932;2022-07-29T05:58:59;8.00;;;2.57;;
11037;SDS011;5572;49.540;11.932;2022-07-29T06:01:26;5.87;;;2.23;;
11037;SDS011;5572;49.540;11.932;2022-07-29T06:03:52;6.03;;;2.17;;
11037;SDS011;5572;49.540;11.932;2022-07-29T06:06:19;3.37;;;2.10;;
11037;SDS011;5572;49.540;11.932;2022-07-29T06:08:45;4.97;;;2.10;;
11037;SDS011;5572;49.540;11.932;2022-07-29T06:11:12;17.90;;;2.13;;
11037;SDS011;5572;49.540;11.932;2022-07-29T06:13:40;3.87;;;2.40;;
11037;SDS011;5572;49.540;11.932;2022-07-29T06:16:07;5.57;;;2.03;;
11037;SDS011;5572;49.540;11.932;2022-07-29T06:18:33;2.83;;;2.13;;
11037;SDS011;5572;49.540;11.932;2022-07-29T06:21:00;5.77;;;2.07;;
11037;SDS011;5572;49.540;11.932;2022-07-29T06:23:26;6.00;;;2.53;;
11037;SDS011;5572;49.540;11.932;2022-07-29T06:25:53;7.10;;;1.90;;
11037;SDS011;5572;49.540;11.932;2022-07-29T06:28:19;3.23;;;2.00;;
11037;SDS011;5572;49.540;11.932;2022-07-29T06:30:47;4.10;;;2.43;;
11037;SDS011;5572;49.540;11.932;2022-07-29T06:33:17;3.03;;;2.00;;
11037;SDS011;5572;49.540;11.932;2022-07-29T06:35:44;2.80;;;1.87;;
11037;SDS011;5572;49.540;11.932;2022-07-29T06:38:12;2.20;;;2.00;;
11037;SDS011;5572;49.540;11.932;2022-07-29T06:40:40;3.97;;;2.23;;
11037;SDS011;5572;49.540;11.932;2022-07-29T06:43:25;2.17;;;1.97;;
11037;SDS011;5572;49.540;11.932;2022-07-29T06:45:53;4.70;;;1.80;;
11037;SDS011;5572;49.540;11.932;2022-07-29T06:48:19;3.90;;;2.20;;
11037;SDS011;5572;49.540;11.932;2022-07-29T06:50:45;3.00;;;2.00;;
11037;SDS011;5572;49.540;11.932;2022-07-29T06:53:12;3.27;;;1.90;;
11037;SDS011;5572;49.540;11.932;2022-07-29T06:55:39;11.33;;;2.00;;
11037;SDS011;5572;49.540;11.932;2022-07-29T06:58:05;4.83;;;2.00;;
11037;SDS011;5572;49.540;11.932;2022-07-29T07:00:32;2.20;;;2.00;;
11037;SDS011;5572;49.540;11.932;2022-07-29T07:03:00;2.93;;;1.60;;
11037;SDS011;5572;49.540;11.932;2022-07-29T07:05:27;6.60;;;1.97;;
11037;SDS011;5572;49.540;11.932;2022-07-29T07:07:53;9.03;;;2.00;;
11037;SDS011;5572;49.540;11.932;2022-07-29T07:10:19;2.83;;;2.00;;
11037;SDS011;5572;49.540;11.932;2022-07-29T07:12:46;4.60;;;1.87;;
11037;SDS011;5572;49.540;11.932;2022-07-29T07:15:13;3.17;;;1.90;;
11037;SDS011;5572;49.540;11.932;2022-07-29T07:17:39;6.17;;;2.17;;
11037;SDS011;5572;49.540;11.932;2022-07-29T07:20:08;5.03;;;2.10;;
11037;SDS011;5572;49.540;11.932;2022-07-29T07:22:35;5.27;;;2.17;;
11037;SDS011;5572;49.540;11.932;2022-07-29T07:25:01;2.60;;;2.13;;
11037;SDS011;5572;49.540;11.932;2022-07-29T07:27:28;5.83;;;2.70;;
11037;SDS011;5572;49.540;11.932;2022-07-29T07:29:54;2.20;;;2.00;;
11037;SDS011;5572;49.540;11.932;2022-07-29T07:32:21;5.53;;;2.27;;
11037;SDS011;5572;49.540;11.932;2022-07-29T07:34:48;6.93;;;2.20;;
11037;SDS011;5572;49.540;11.932;2022-07-29T07:37:16;4.10;;;2.10;;
11037;SDS011;5572;49.540;11.932;2022-07-29T07:39:44;3.90;;;2.30;;
11037;SDS011;5572;49.540;11.932;2022-07-29T07:42:10;5.03;;;2.27;;
11037;SDS011;5572;49.540;11.932;2022-07-29T07:44:37;2.87;;;2.30;;
11037;SDS011;5572;49.540;11.932;2022-07-29T07:47:04;2.40;;;2.20;;
11037;SDS011;5572;49.540;11.932;2022-07-29T07:49:31;7.23;;;2.37;;
11037;SDS011;5572;49.540;11.932;2022-07-29T07:51:57;2.23;;;2.03;;
11037;SDS011;5572;49.540;11.932;2022-07-29T07:54:25;2.40;;;2.00;;
11037;SDS011;5572;49.540;11.932;2022-07-29T07:56:52;2.47;;;2.23;;
11037;SDS011;5572;49.540;11.932;2022-07-29T07:59:18;2.20;;;2.00;;
11037;SDS011;5572;49.540;11.932;2022-07-29T08:01:45;10.07;;;2.33;;
11037;SDS011;5572;49.540;11.932;2022-07-29T08:04:11;5.47;;;2.30;;
11037;SDS011;5572;49.540;11.932;2022-07-29T08:06:38;3.37;;;2.27;;
11037;SDS011;5572;49.540;11.932;2022-07-29T08:09:05;4.03;;;2.50;;
11037;SDS011;5572;49.540;11.932;2022-07-29T08:11:32;5.40;;;2.40;;
11037;SDS011;5572;49.540;11.932;2022-07-29T08:13:59;3.78;;;2.70;;
11037;SDS011;5572;49.540;11.932;2022-07-29T08:16:26;2.57;;;2.30;;
11037;SDS011;5572;49.540;11.932;2022-07-29T08:18:53;2.58;;;2.38;;
11037;SDS011;5572;49.540;11.932;2022-07-29T08:21:22;2.50;;;2.30;;
11037;SDS011;5572;49.540;11.932;2022-07-29T08:23:49;5.43;;;2.60;;
11037;SDS011;5572;49.540;11.932;2022-07-29T08:26:18;3.00;;;2.70;;
11037;SDS011;5572;49.540;11.932;2022-07-29T08:28:48;3.47;;;2.60;;
11037;SDS011;5572;49.540;11.932;2022-07-29T08:31:16;6.57;;;3.10;;
11037;SDS011;5572;49.540;11.932;2022-07-29T08:33:42;3.00;;;2.70;;
11037;SDS011;5572;49.540;11.932;2022-07-29T08:36:09;3.17;;;2.42;;
11037;SDS011;5572;49.540;11.932;2022-07-29T08:38:37;6.63;;;2.78;;
11037;SDS011;5572;49.540;11.932;2022-07-29T08:41:04;4.88;;;3.03;;
11037;SDS011;5572;49.540;11.932;2022-07-29T08:43:31;3.30;;;2.50;;
11037;SDS011;5572;49.540;11.932;2022-07-29T08:46:01;3.60;;;3.10;;
11037;SDS011;5572;49.540;11.932;2022-07-29T08:48:28;8.73;;;3.10;;
11037;SDS011;5572;49.540;11.932;2022-07-29T08:50:55;6.90;;;2.80;;
11037;SDS011;5572;49.540;11.932;2022-07-29T08:53:23;2.80;;;2.58;;
11037;SDS011;5572;49.540;11.932;2022-07-29T08:55:52;6.72;;;3.35;;
11037;SDS011;5572;49.540;11.932;2022-07-29T08:58:19;5.38;;;3.22;;
11037;SDS011;5572;49.540;11.932;2022-07-29T09:00:48;5.45;;;2.90;;
11037;SDS011;5572;49.540;11.932;2022-07-29T09:03:18;3.50;;;2.90;;
11037;SDS011;5572;49.540;11.932;2022-07-29T09:05:48;5.68;;;3.22;;
11037;SDS011;5572;49.540;11.932;2022-07-29T09:08:16;3.30;;;2.65;;
11037;SDS011;5572;49.540;11.932;2022-07-29T09:10:43;4.32;;;2.85;;
11037;SDS011;5572;49.540;11.932;2022-07-29T09:13:10;3.85;;;3.25;;
11037;SDS011;5572;49.540;11.932;2022-07-29T09:15:37;4.40;;;3.35;;
11037;SDS011;5572;49.540;11.932;2022-07-29T09:18:04;4.50;;;3.10;;
11037;SDS011;5572;49.540;11.932;2022-07-29T09:20:32;5.30;;;3.25;;
11037;SDS011;5572;49.540;11.932;2022-07-29T09:23:12;7.00;;;2.97;;
11037;SDS011;5572;49.540;11.932;2022-07-29T09:25:39;3.72;;;3.30;;
11037;SDS011;5572;49.540;11.932;2022-07-29T09:28:07;5.25;;;3.60;;
11037;SDS011;5572;49.540;11.932;2022-07-29T09:30:35;3.63;;;3.30;;
11037;SDS011;5572;49.540;11.932;2022-07-29T09:33:02;5.07;;;3.55;;
11037;SDS011;5572;49.540;11.932;2022-07-29T09:35:30;3.45;;;3.15;;
11037;SDS011;5572;49.540;11.932;2022-07-29T09:37:58;4.22;;;3.30;;
11037;SDS011;5572;49.540;11.932;2022-07-29T09:40:36;3.95;;;3.33;;
11037;SDS011;5572;49.540;11.932;2022-07-29T09:43:08;3.78;;;3.10;;
11037;SDS011;5572;49.540;11.932;2022-07-29T09:45:36;3.35;;;3.05;;
11037;SDS011;5572;49.540;11.932;2022-07-29T09:48:12;3.42;;;3.13;;
11037;SDS011;5572;49.540;11.932;2022-07-29T09:50:42;5.20;;;3.55;;
11037;SDS011;5572;49.540;11.932;2022-07-29T09:53:09;3.45;;;3.25;;
11037;SDS011;5572;49.540;11.932;2022-07-29T09:55:46;3.65;;;3.35;;
11037;SDS011;5572;49.540;11.932;2022-07-29T09:58:15;4.13;;;3.78;;
11037;SDS011;5572;49.540;11.932;2022-07-29T10:00:43;3.40;;;3.20;;
11037;SDS011;5572;49.540;11.932;2022-07-29T10:03:10;3.28;;;3.00;;
11037;SDS011;5572;49.540;11.932;2022-07-29T10:05:36;5.30;;;3.35;;
11037;SDS011;5572;49.540;11.932;2022-07-29T10:08:05;3.75;;;3.42;;
11037;SDS011;5572;49.540;11.932;2022-07-29T10:10:34;5.28;;;3.50;;
11037;SDS011;5572;49.540;11.932;2022-07-29T10:13:03;7.53;;;3.60;;
11037;SDS011;5572;49.540;11.932;2022-07-29T10:15:31;5.38;;;3.17;;
11037;SDS011;5572;49.540;11.932;2022-07-29T10:18:02;3.45;;;3.22;;
11037;SDS011;5572;49.540;11.932;2022-07-29T10:20:29;3.33;;;3.03;;
11037;SDS011;5572;49.540;11.932;2022-07-29T10:22:56;4.05;;;3.65;;
11037;SDS011;5572;49.540;11.932;2022-07-29T10:25:25;7.13;;;3.40;;
11037;SDS011;5572;49.540;11.932;2022-07-29T10:27:52;4.75;;;3.58;;
11037;SDS011;5572;49.540;11.932;2022-07-29T10:30:20;5.60;;;3.05;;
11037;SDS011;5572;49.540;11.932;2022-07-29T10:33:01;3.53;;;3.22;;
11037;SDS011;5572;49.540;11.932;2022-07-29T10:35:43;3.75;;;3.30;;
11037;SDS011;5572;49.540;11.932;2022-07-29T10:38:29;4.88;;;2.85;;
11037;SDS011;5572;49.540;11.932;2022-07-29T10:41:09;3.45;;;3.22;;
11037;SDS011;5572;49.540;11.932;2022-07-29T10:43:54;3.28;;;2.92;;
11037;SDS011;5572;49.540;11.932;2022-07-29T10:46:22;3.85;;;3.10;;
11037;SDS011;5572;49.540;11.932;2022-07-29T10:49:11;3.50;;;2.67;;
11037;SDS011;5572;49.540;11.932;2022-07-29T10:51:50;2.42;;;2.33;;
11037;SDS011;5572;49.540;11.932;2022-07-29T10:54:18;3.15;;;2.95;;
11037;SDS011;5572;49.540;11.932;2022-07-29T10:56:46;6.70;;;3.13;;
11037;SDS011;5572;49.540;11.932;2022-07-29T10:59:25;3.75;;;2.88;;
11037;SDS011;5572;49.540;11.932;2022-07-29T11:01:53;3.35;;;3.05;;
11037;SDS011;5572;49.540;11.932;2022-07-29T11:07:26;2.55;;;2.45;;
11037;SDS011;5572;49.540;11.932;2022-07-29T11:12:47;2.65;;;2.55;;
11037;SDS011;5572;49.540;11.932;2022-07-29T11:15:14;2.70;;;2.50;;
11037;SDS011;5572;49.540;11.932;2022-07-29T11:20:38;3.53;;;2.75;;
11037;SDS011;5572;49.540;11.932;2022-07-29T11:23:19;3.20;;;3.00;;
11037;SDS011;5572;49.540;11.932;2022-07-29T11:28:48;2.90;;;2.65;;
11037;SDS011;5572;49.540;11.932;2022-07-29T11:31:19;3.85;;;2.90;;
11037;SDS011;5572;49.540;11.932;2022-07-29T11:34:11;5.55;;;2.95;;
11037;SDS011;5572;49.540;11.932;2022-07-29T11:39:42;3.03;;;2.67;;
11037;SDS011;5572;49.540;11.932;2022-07-29T11:45:08;2.90;;;2.70;;
11037;SDS011;5572;49.540;11.932;2022-07-29T11:47:39;4.65;;;2.50;;
11037;SDS011;5572;49.540;11.932;2022-07-29T11:50:08;2.55;;;2.45;;
11037;SDS011;5572;49.540;11.932;2022-07-29T11:52:38;3.08;;;2.78;;
11037;SDS011;5572;49.540;11.932;2022-07-29T11:55:11;3.75;;;2.38;;
11037;SDS011;5572;49.540;11.932;2022-07-29T11:57:45;2.95;;;2.75;;
11037;SDS011;5572;49.540;11.932;2022-07-29T12:00:20;5.28;;;2.90;;
11037;SDS011;5572;49.540;11.932;2022-07-29T12:02:51;3.28;;;2.83;;
11037;SDS011;5572;49.540;11.932;2022-07-29T12:05:18;2.95;;;2.67;;
11037;SDS011;5572;49.540;11.932;2022-07-29T12:07:45;4.85;;;2.42;;
11037;SDS011;5572;49.540;11.932;2022-07-29T12:10:13;3.00;;;2.80;;
11037;SDS011;5572;49.540;11.932;2022-07-29T12:12:40;3.00;;;2.75;;
11037;SDS011;5572;49.540;11.932;2022-07-29T12:15:10;6.28;;;2.63;;
11037;SDS011;5572;49.540;11.932;2022-07-29T12:17:39;4.10;;;2.72;;
11037;SDS011;5572;49.540;11.932;2022-07-29T12:20:07;2.92;;;2.72;;
11037;SDS011;5572;49.540;11.932;2022-07-29T12:22:35;3.63;;;2.90;;
11037;SDS011;5572;49.540;11.932;2022-07-29T12:25:05;2.83;;;2.70;;
11037;SDS011;5572;49.540;11.932;2022-07-29T12:27:33;2.80;;;2.67;;
11037;SDS011;5572;49.540;11.932;2022-07-29T12:30:01;2.90;;;2.70;;
11037;SDS011;5572;49.540;11.932;2022-07-29T12:32:31;2.75;;;2.55;;
11037;SDS011;5572;49.540;11.932;2022-07-29T12:34:59;3.10;;;2.90;;
11037;SDS011;5572;49.540;11.932;2022-07-29T12:37:29;3.17;;;2.90;;
11037;SDS011;5572;49.540;11.932;2022-07-29T12:39:56;3.40;;;3.10;;
11037;SDS011;5572;49.540;11.932;2022-07-29T12:42:23;3.10;;;2.80;;
11037;SDS011;5572;49.540;11.932;2022-07-29T12:44:50;3.20;;;3.00;;
11037;SDS011;5572;49.540;11.932;2022-07-29T12:47:17;3.30;;;3.00;;
11037;SDS011;5572;49.540;11.932;2022-07-29T12:49:44;2.97;;;2.88;;
11037;SDS011;5572;49.540;11.932;2022-07-29T12:52:28;4.00;;;2.90;;
11037;SDS011;5572;49.540;11.932;2022-07-29T12:54:57;3.38;;;3.17;;
11037;SDS011;5572;49.540;11.932;2022-07-29T12:57:24;3.67;;;3.00;;
11037;SDS011;5572;49.540;11.932;2022-07-29T13:00:04;3.10;;;2.90;;
11037;SDS011;5572;49.540;11.932;2022-07-29T13:02:34;5.88;;;2.97;;
11037;SDS011;5572;49.540;11.932;2022-07-29T13:05:02;2.97;;;2.75;;
11037;SDS011;5572;49.540;11.932;2022-07-29T13:07:31;3.17;;;3.00;;
11037;SDS011;5572;49.540;11.932;2022-07-29T13:10:10;3.00;;;2.80;;
11037;SDS011;5572;49.540;11.932;2022-07-29T13:12:39;3.20;;;2.92;;
11037;SDS011;5572;49.540;11.932;2022-07-29T13:15:26;3.85;;;2.72;;
11037;SDS011;5572;49.540;11.932;2022-07-29T13:17:52;2.95;;;2.70;;
11037;SDS011;5572;49.540;11.932;2022-07-29T13:20:23;4.45;;;3.17;;
11037;SDS011;5572;49.540;11.932;2022-07-29T13:22:53;3.25;;;3.05;;
11037;SDS011;5572;49.540;11.932;2022-07-29T13:25:24;6.93;;;2.95;;
11037;SDS011;5572;49.540;11.932;2022-07-29T13:27:51;5.90;;;3.55;;
11037;SDS011;5572;49.540;11.932;2022-07-29T13:30:19;3.67;;;3.38;;
11037;SDS011;5572;49.540;11.932;2022-07-29T13:32:46;4.50;;;3.00;;
11037;SDS011;5572;49.540;11.932;2022-07-29T13:35:13;5.07;;;3.60;;
11037;SDS011;5572;49.540;11.932;2022-07-29T13:37:40;3.60;;;3.30;;
11037;SDS011;5572;49.540;11.932;2022-07-29T13:40:09;3.50;;;3.10;;
11037;SDS011;5572;49.540;11.932;2022-07-29T13:42:36;3.22;;;3.00;;
11037;SDS011;5572;49.540;11.932;2022-07-29T13:45:03;5.05;;;2.90;;
11037;SDS011;5572;49.540;11.932;2022-07-29T13:47:31;6.53;;;3.53;;
11037;SDS011;5572;49.540;11.932;2022-07-29T13:49:58;3.30;;;3.10;;
11037;SDS011;5572;49.540;11.932;2022-07-29T13:52:24;3.75;;;3.45;;
11037;SDS011;5572;49.540;11.932;2022-07-29T13:54:51;4.03;;;3.63;;
11037;SDS011;5572;49.540;11.932;2022-07-29T13:57:19;3.78;;;3.10;;
11037;SDS011;5572;49.540;11.932;2022-07-29T13:59:45;4.32;;;3.55;;
11037;SDS011;5572;49.540;11.932;2022-07-29T14:02:12;3.85;;;3.55;;
11037;SDS011;5572;49.540;11.932;2022-07-29T14:04:39;5.93;;;4.22;;
11037;SDS011;5572;49.540;11.932;2022-07-29T14:07:05;6.97;;;4.10;;
11037;SDS011;5572;49.540;11.932;2022-07-29T14:09:32;4.47;;;3.80;;
11037;SDS011;5572;49.540;11.932;2022-07-29T14:11:59;3.90;;;3.60;;
11037;SDS011;5572;49.540;11.932;2022-07-29T14:14:28;3.90;;;3.50;;
11037;SDS011;5572;49.540;11.932;2022-07-29T14:16:56;4.07;;;3.70;;
11037;SDS011;5572;49.540;11.932;2022-07-29T14:19:23;5.78;;;3.55;;
11037;SDS011;5572;49.540;11.932;2022-07-29T14:21:49;5.80;;;3.60;;
11037;SDS011;5572;49.540;11.932;2022-07-29T14:24:16;10.67;;;3.70;;
11037;SDS011;5572;49.540;11.932;2022-07-29T14:26:43;10.83;;;3.73;;
11037;SDS011;5572;49.540;11.932;2022-07-29T14:29:09;5.40;;;4.10;;
11037;SDS011;5572;49.540;11.932;2022-07-29T14:31:38;7.67;;;4.00;;
11037;SDS011;5572;49.540;11.932;2022-07-29T14:34:04;4.80;;;4.20;;
11037;SDS011;5572;49.540;11.932;2022-07-29T14:36:31;6.27;;;4.30;;
11037;SDS011;5572;49.540;11.932;2022-07-29T14:38:57;6.63;;;4.57;;
11037;SDS011;5572;49.540;11.932;2022-07-29T14:41:24;15.07;;;5.30;;
11037;SDS011;5572;49.540;11.932;2022-07-29T14:43:53;5.97;;;4.70;;
11037;SDS011;5572;49.540;11.932;2022-07-29T14:46:19;5.17;;;4.57;;
11037;SDS011;5572;49.540;11.932;2022-07-29T14:48:47;4.10;;;3.63;;
11037;SDS011;5572;49.540;11.932;2022-07-29T14:51:14;3.60;;;3.30;;
11037;SDS011;5572;49.540;11.932;2022-07-29T14:53:40;4.23;;;3.90;;
11037;SDS011;5572;49.540;11.932;2022-07-29T14:56:07;5.70;;;4.30;;
11037;SDS011;5572;49.540;11.932;2022-07-29T14:58:33;3.73;;;3.43;;
11037;SDS011;5572;49.540;11.932;2022-07-29T15:01:00;11.70;;;4.80;;
11037;SDS011;5572;49.540;11.932;2022-07-29T15:03:27;6.47;;;4.07;;
11037;SDS011;5572;49.540;11.932;2022-07-29T15:05:55;4.30;;;3.90;;
11037;SDS011;5572;49.540;11.932;2022-07-29T15:08:22;6.10;;;3.73;;
11037;SDS011;5572;49.540;11.932;2022-07-29T15:10:50;4.47;;;4.07;;
11037;SDS011;5572;49.540;11.932;2022-07-29T15:13:22;5.27;;;4.43;;
11037;SDS011;5572;49.540;11.932;2022-07-29T15:15:49;3.60;;;3.27;;
11037;SDS011;5572;49.540;11.932;2022-07-29T15:18:16;4.60;;;4.00;;